Time,TemperatureF,DewpointF,PressureIn,WindDirection,WindDirectionDegrees,WindSpeedMPH,WindSpeedGustMPH,Humidity,HourlyPrecipIn,Conditions,Clouds,dailyrainin,SoftwareType,DateUTC
2013-07-05 00:10:00,72.9,42.8,29.73,North,4,0.0,0.0,34,0.00,,,-99.99,Weather View 32 v60,2013-07-05 07:10:00,
2013-07-05 00:19:00,72.3,42.3,29.73,NE,43,0.0,0.0,34,0.00,,,-99.99,Weather View 32 v60,2013-07-05 07:19:00,
2013-07-05 00:29:00,70.5,41.5,29.73,North,356,0.0,0.0,35,0.00,,,-99.99,Weather View 32 v60,2013-07-05 07:29:00,
2013-07-05 00:39:00,69.6,40.7,29.73,NNE,15,0.0,0.0,35,0.00,,,-99.99,Weather View 32 v60,2013-07-05 07:39:00,
2013-07-05 00:50:00,68.7,41.3,29.73,NNW,333,0.0,4.0,37,0.00,,,-99.99,Weather View 32 v60,2013-07-05 07:50:00,
2013-07-05 00:59:00,68.0,42.1,29.73,North,351,0.0,4.0,39,0.00,,,-99.99,Weather View 32 v60,2013-07-05 07:59:00,
2013-07-05 01:09:00,67.5,42.9,29.73,NNW,346,0.0,4.0,41,0.00,,,-99.99,Weather View 32 v60,2013-07-05 08:09:00,
2013-07-05 01:19:00,66.9,44.2,29.73,NNE,27,0.0,4.0,44,0.00,,,-99.99,Weather View 32 v60,2013-07-05 08:19:00,
2013-07-05 01:29:00,66.6,43.9,29.73,NNE,29,0.0,4.0,44,0.00,,,-99.99,Weather View 32 v60,2013-07-05 08:29:00,
2013-07-05 01:39:00,66.2,44.2,29.73,NNW,339,0.0,4.0,45,0.00,,,-99.99,Weather View 32 v60,2013-07-05 08:39:00,
2013-07-05 01:49:00,65.7,44.3,29.73,NNE,22,0.0,0.0,46,0.00,,,-99.99,Weather View 32 v60,2013-07-05 08:49:00,
2013-07-05 01:59:00,65.7,43.7,29.73,NNE,12,0.0,0.0,45,0.00,,,-99.99,Weather View 32 v60,2013-07-05 08:59:00,
2013-07-05 02:19:00,64.9,44.2,29.73,NNE,25,0.0,0.0,47,0.00,,,-99.99,Weather View 32 v60,2013-07-05 09:19:00,
2013-07-05 02:29:00,64.4,44.2,29.76,North,5,0.0,0.0,48,0.00,,,-99.99,Weather View 32 v60,2013-07-05 09:29:00,
2013-07-05 02:39:00,64.0,45.0,29.76,NE,39,0.0,0.0,50,0.00,,,-99.99,Weather View 32 v60,2013-07-05 09:39:00,
2013-07-05 02:51:00,63.5,45.0,29.76,ENE,61,0.0,0.0,51,0.00,,,-99.99,Weather View 32 v60,2013-07-05 09:51:00,
2013-07-05 02:59:00,63.3,44.8,29.73,NE,42,0.0,0.0,51,0.00,,,-99.99,Weather View 32 v60,2013-07-05 09:59:00,
2013-07-05 03:09:00,62.8,44.9,29.76,NNE,28,0.0,0.0,52,0.00,,,-99.99,Weather View 32 v60,2013-07-05 10:09:00,
2013-07-05 03:19:00,62.2,45.8,29.76,NNE,25,0.0,0.0,55,0.00,,,-99.99,Weather View 32 v60,2013-07-05 10:19:00,
2013-07-05 03:29:00,62.1,46.1,29.73,NNE,17,0.0,0.0,56,0.00,,,-99.99,Weather View 32 v60,2013-07-05 10:29:00,
2013-07-05 03:39:00,61.7,46.7,29.76,North,356,0.0,0.0,58,0.00,,,-99.99,Weather View 32 v60,2013-07-05 10:39:00,
2013-07-05 03:49:00,61.2,47.6,29.76,NNE,30,0.0,0.0,61,0.00,,,-99.99,Weather View 32 v60,2013-07-05 10:49:00,
2013-07-05 03:59:00,60.6,47.5,29.76,North,351,0.0,0.0,62,0.00,,,-99.99,Weather View 32 v60,2013-07-05 10:59:00,
2013-07-05 04:09:00,60.4,48.6,29.76,NE,37,0.0,0.0,65,0.00,,,-99.99,Weather View 32 v60,2013-07-05 11:09:00,
2013-07-05 04:19:00,60.4,48.2,29.76,NNE,26,0.0,0.0,64,0.00,,,-99.99,Weather View 32 v60,2013-07-05 11:19:00,
2013-07-05 04:29:00,60.1,47.8,29.76,NNE,26,0.0,0.0,64,0.00,,,-99.99,Weather View 32 v60,2013-07-05 11:29:00,
2013-07-05 04:39:00,59.7,47.9,29.76,NNE,26,0.0,0.0,65,0.00,,,-99.99,Weather View 32 v60,2013-07-05 11:39:00,
2013-07-05 04:49:00,59.2,47.8,29.76,NNE,21,0.0,0.0,66,0.00,,,-99.99,Weather View 32 v60,2013-07-05 11:49:00,
2013-07-05 04:59:00,58.8,48.3,29.76,West,278,0.0,0.0,68,0.00,,,-99.99,Weather View 32 v60,2013-07-05 11:59:00,
2013-07-05 05:09:00,58.6,48.9,29.76,West,267,0.0,0.0,70,0.00,,,-99.99,Weather View 32 v60,2013-07-05 12:09:00,
2013-07-05 05:19:00,58.5,49.1,29.76,WSW,245,0.0,0.0,71,0.00,,,-99.99,Weather View 32 v60,2013-07-05 12:19:00,
2013-07-05 05:29:00,58.3,48.9,29.76,NNW,340,0.0,0.0,71,0.00,,,-99.99,Weather View 32 v60,2013-07-05 12:29:00,
2013-07-05 05:39:00,58.1,49.5,29.76,WNW,286,0.0,0.0,73,0.00,,,-99.99,Weather View 32 v60,2013-07-05 12:39:00,
2013-07-05 05:49:00,57.9,49.7,29.76,SSW,202,0.0,0.0,74,0.00,,,-99.99,Weather View 32 v60,2013-07-05 12:49:00,
2013-07-05 05:59:00,57.9,49.7,29.76,WNW,283,0.0,0.0,74,0.00,,,-99.99,Weather View 32 v60,2013-07-05 12:59:00,
2013-07-05 06:09:00,58.1,49.8,29.79,West,276,0.0,5.0,74,0.00,,,-99.99,Weather View 32 v60,2013-07-05 13:09:00,
2013-07-05 06:19:00,58.6,50.4,29.79,WSW,250,0.0,5.0,74,0.00,,,-99.99,Weather View 32 v60,2013-07-05 13:19:00,
2013-07-05 06:29:00,59.0,50.0,29.79,SW,236,0.0,5.0,72,0.00,,,-99.99,Weather View 32 v60,2013-07-05 13:29:00,
2013-07-05 06:39:00,59.0,50.3,29.79,NW,315,9.0,9.0,73,0.00,,,-99.99,Weather View 32 v60,2013-07-05 13:39:00,
2013-07-05 07:09:00,60.1,50.6,29.79,SW,222,0.0,9.0,71,0.00,,,-99.99,Weather View 32 v60,2013-07-05 14:09:00,
2013-07-05 07:19:00,60.6,50.8,29.79,NNW,346,0.0,9.0,70,0.00,,,-99.99,Weather View 32 v60,2013-07-05 14:19:00,
2013-07-05 07:29:00,61.0,50.7,29.79,WNW,294,0.0,9.0,69,0.00,,,-99.99,Weather View 32 v60,2013-07-05 14:29:00,
2013-07-05 07:39:00,61.5,50.8,29.79,West,259,3.0,9.0,68,0.00,,,-99.99,Weather View 32 v60,2013-07-05 14:39:00,
2013-07-05 07:49:00,61.5,50.4,29.79,NNW,335,4.0,7.0,67,0.00,,,-99.99,Weather View 32 v60,2013-07-05 14:49:00,
2013-07-05 07:59:00,61.7,50.2,29.79,NNW,335,0.0,7.0,66,0.00,,,-99.99,Weather View 32 v60,2013-07-05 14:59:00,
2013-07-05 08:19:00,63.5,50.2,29.81,WNW,296,6.0,10.0,62,0.00,,,-99.99,Weather View 32 v60,2013-07-05 15:19:00,
2013-07-05 08:29:00,63.7,49.9,29.81,WSW,239,4.0,13.0,61,0.00,,,-99.99,Weather View 32 v60,2013-07-05 15:29:00,
2013-07-05 08:39:00,63.9,49.7,29.81,West,266,8.0,13.0,60,0.00,,,-99.99,Weather View 32 v60,2013-07-05 15:39:00,
2013-07-05 08:49:00,64.2,50.0,29.81,West,262,0.0,13.0,60,0.00,,,-99.99,Weather View 32 v60,2013-07-05 15:49:00,
2013-07-05 08:59:00,64.6,49.9,29.81,WSW,251,4.0,13.0,59,0.00,,,-99.99,Weather View 32 v60,2013-07-05 15:59:00,
2013-07-05 09:09:00,65.5,49.3,29.81,SW,230,8.0,13.0,56,0.00,,,-99.99,Weather View 32 v60,2013-07-05 16:09:00,
2013-07-05 09:19:00,65.7,49.5,29.81,West,262,4.0,13.0,56,0.00,,,-99.99,Weather View 32 v60,2013-07-05 16:19:00,
2013-07-05 09:29:00,66.6,49.8,29.81,SSW,207,4.0,13.0,55,0.00,,,-99.99,Weather View 32 v60,2013-07-05 16:29:00,
2013-07-05 09:39:00,67.1,49.3,29.81,SSW,212,5.0,13.0,53,0.00,,,-99.99,Weather View 32 v60,2013-07-05 16:39:00,
2013-07-05 09:49:00,67.6,48.3,29.81,SW,232,8.0,13.0,50,0.00,,,-99.99,Weather View 32 v60,2013-07-05 16:49:00,
2013-07-05 09:59:00,68.2,47.7,29.81,SW,229,4.0,13.0,48,0.00,,,-99.99,Weather View 32 v60,2013-07-05 16:59:00,
2013-07-05 10:09:00,68.7,48.7,29.81,SSW,208,3.0,13.0,49,0.00,,,-99.99,Weather View 32 v60,2013-07-05 17:09:00,
2013-07-05 10:19:00,69.3,48.1,29.81,SW,228,7.0,13.0,47,0.00,,,-99.99,Weather View 32 v60,2013-07-05 17:19:00,
2013-07-05 10:29:00,70.0,48.8,29.81,SW,220,6.0,13.0,47,0.00,,,-99.99,Weather View 32 v60,2013-07-05 17:29:00,
2013-07-05 10:39:00,70.3,47.9,29.81,SW,228,4.0,13.0,45,0.00,,,-99.99,Weather View 32 v60,2013-07-05 17:39:00,
2013-07-05 10:49:00,70.0,48.2,29.81,West,266,5.0,13.0,46,0.00,,,-99.99,Weather View 32 v60,2013-07-05 17:49:00,
2013-07-05 10:55:00,70.0,48.2,29.81,West,266,5.0,13.0,46,0.00,,,-99.99,Weather View 32 v60,2013-07-05 17:55:00,
2013-07-05 11:09:00,71.8,49.2,29.81,SW,215,6.0,12.0,45,0.00,,,-99.99,Weather View 32 v60,2013-07-05 18:09:00,
2013-07-05 11:19:00,72.0,48.2,29.81,SW,226,3.0,12.0,43,0.00,,,-99.99,Weather View 32 v60,2013-07-05 18:19:00,
2013-07-05 11:29:00,72.1,49.6,29.81,West,273,0.0,12.0,45,0.00,,,-99.99,Weather View 32 v60,2013-07-05 18:29:00,
2013-07-05 11:39:00,73.2,49.3,29.81,West,270,0.0,11.0,43,0.00,,,-99.99,Weather View 32 v60,2013-07-05 18:39:00,
2013-07-05 11:49:00,73.8,49.2,29.81,WSW,245,7.0,11.0,42,0.00,,,-99.99,Weather View 32 v60,2013-07-05 18:49:00,
2013-07-05 11:55:00,73.8,49.2,29.81,WSW,245,7.0,11.0,42,0.00,,,-99.99,Weather View 32 v60,2013-07-05 18:55:00,
2013-07-05 12:09:00,75.0,49.7,29.79,West,267,0.0,11.0,41,0.00,,,-99.99,Weather View 32 v60,2013-07-05 19:09:00,
2013-07-05 12:19:00,75.7,49.6,29.79,WNW,295,0.0,11.0,40,0.00,,,-99.99,Weather View 32 v60,2013-07-05 19:19:00,
2013-07-05 12:29:00,75.9,48.4,29.79,NW,313,0.0,11.0,38,0.00,,,-99.99,Weather View 32 v60,2013-07-05 19:29:00,
2013-07-05 12:39:00,76.1,49.3,29.79,West,267,3.0,11.0,39,0.00,,,-99.99,Weather View 32 v60,2013-07-05 19:39:00,
2013-07-05 12:49:00,76.6,48.3,29.79,SW,221,0.0,11.0,37,0.00,,,-99.99,Weather View 32 v60,2013-07-05 19:49:00,
2013-07-05 12:56:00,76.6,48.3,29.79,SW,221,0.0,11.0,37,0.00,,,-99.99,Weather View 32 v60,2013-07-05 19:56:00,
2013-07-05 13:09:00,77.5,49.8,29.79,WSW,248,5.0,11.0,38,0.00,,,-99.99,Weather View 32 v60,2013-07-05 20:09:00,
2013-07-05 13:19:00,77.5,48.4,29.79,SSW,198,0.0,14.0,36,0.00,,,-99.99,Weather View 32 v60,2013-07-05 20:19:00,
2013-07-05 13:29:00,77.2,49.5,29.79,SW,233,0.0,14.0,38,0.00,,,-99.99,Weather View 32 v60,2013-07-05 20:29:00,
2013-07-05 13:39:00,78.8,49.5,29.79,NNW,333,0.0,14.0,36,0.00,,,-99.99,Weather View 32 v60,2013-07-05 20:39:00,
2013-07-05 13:49:00,79.0,48.9,29.79,West,261,5.0,14.0,35,0.00,,,-99.99,Weather View 32 v60,2013-07-05 20:49:00,
2013-07-05 13:57:00,79.0,48.9,29.79,West,261,5.0,14.0,35,0.00,,,-99.99,Weather View 32 v60,2013-07-05 20:57:00,
2013-07-05 14:09:00,80.8,48.9,29.76,WSW,258,0.0,14.0,33,0.00,,,-99.99,Weather View 32 v60,2013-07-05 21:09:00,
2013-07-05 14:19:00,81.3,49.4,29.76,WSW,254,0.0,12.0,33,0.00,,,-99.99,Weather View 32 v60,2013-07-05 21:19:00,
2013-07-05 14:29:00,81.9,49.8,29.76,NW,320,3.0,11.0,33,0.00,,,-99.99,Weather View 32 v60,2013-07-05 21:29:00,
2013-07-05 14:39:00,80.2,48.4,29.76,WSW,245,4.0,11.0,33,0.00,,,-99.99,Weather View 32 v60,2013-07-05 21:39:00,
2013-07-05 14:49:00,79.3,48.4,29.76,WSW,246,4.0,11.0,34,0.00,,,-99.99,Weather View 32 v60,2013-07-05 21:49:00,
2013-07-05 14:57:00,79.3,48.4,29.76,WSW,246,4.0,11.0,34,0.00,,,-99.99,Weather View 32 v60,2013-07-05 21:57:00,
2013-07-05 15:09:00,77.9,49.5,29.76,NNW,329,8.0,13.0,37,0.00,,,-99.99,Weather View 32 v60,2013-07-05 22:09:00,
2013-07-05 15:19:00,78.1,48.9,29.76,West,271,0.0,13.0,36,0.00,,,-99.99,Weather View 32 v60,2013-07-05 22:19:00,
2013-07-05 15:29:00,77.9,48.7,29.76,West,272,0.0,13.0,36,0.00,,,-99.99,Weather View 32 v60,2013-07-05 22:29:00,
2013-07-05 15:39:00,77.9,48.7,29.76,North,351,0.0,13.0,36,0.00,,,-99.99,Weather View 32 v60,2013-07-05 22:39:00,
2013-07-05 15:49:00,77.9,48.7,29.76,NW,308,5.0,13.0,36,0.00,,,-99.99,Weather View 32 v60,2013-07-05 22:49:00,
2013-07-05 15:58:00,77.9,48.7,29.76,NW,308,5.0,13.0,36,0.00,,,-99.99,Weather View 32 v60,2013-07-05 22:58:00,
2013-07-05 16:09:00,77.4,49.0,29.76,WSW,238,0.0,12.0,37,0.00,,,-99.99,Weather View 32 v60,2013-07-05 23:09:00,
2013-07-05 16:19:00,76.6,48.3,29.76,WNW,282,0.0,12.0,37,0.00,,,-99.99,Weather View 32 v60,2013-07-05 23:19:00,
2013-07-05 16:29:00,75.7,48.9,29.73,West,269,0.0,16.0,39,0.00,,,-99.99,Weather View 32 v60,2013-07-05 23:29:00,
2013-07-05 16:39:00,75.7,48.3,29.76,SW,214,0.0,16.0,38,0.00,,,-99.99,Weather View 32 v60,2013-07-05 23:39:00,
2013-07-05 16:49:00,75.0,49.7,29.76,SW,227,0.0,16.0,41,0.00,,,-99.99,Weather View 32 v60,2013-07-05 23:49:00,
2013-07-05 16:58:00,75.0,49.7,29.76,SW,227,0.0,16.0,41,0.00,,,-99.99,Weather View 32 v60,2013-07-05 23:58:00,
2013-07-05 17:09:00,73.9,48.7,29.73,South,177,5.0,16.0,41,0.00,,,-99.99,Weather View 32 v60,2013-07-06 00:09:00,
2013-07-05 17:19:00,73.4,48.8,29.73,West,276,0.0,16.0,42,0.00,,,-99.99,Weather View 32 v60,2013-07-06 00:19:00,
2013-07-05 17:29:00,73.2,48.7,29.73,WNW,287,7.0,12.0,42,0.00,,,-99.99,Weather View 32 v60,2013-07-06 00:29:00,
2013-07-05 17:39:00,73.4,48.8,29.73,WSW,243,3.0,10.0,42,0.00,,,-99.99,Weather View 32 v60,2013-07-06 00:39:00,
2013-07-05 17:49:00,73.0,48.5,29.73,NW,318,0.0,11.0,42,0.00,,,-99.99,Weather View 32 v60,2013-07-06 00:49:00,
2013-07-05 17:59:00,73.0,48.5,29.73,NW,318,0.0,11.0,42,0.00,,,-99.99,Weather View 32 v60,2013-07-06 00:59:00,
2013-07-05 18:09:00,71.8,47.4,29.73,NNE,29,0.0,11.0,42,0.00,,,-99.99,Weather View 32 v60,2013-07-06 01:09:00,
2013-07-05 18:19:00,70.9,47.2,29.73,West,263,0.0,11.0,43,0.00,,,-99.99,Weather View 32 v60,2013-07-06 01:19:00,
2013-07-05 18:29:00,70.5,48.1,29.73,North,351,8.0,11.0,45,0.00,,,-99.99,Weather View 32 v60,2013-07-06 01:29:00,
2013-07-05 18:39:00,70.0,47.6,29.73,North,351,3.0,11.0,45,0.00,,,-99.99,Weather View 32 v60,2013-07-06 01:39:00,
2013-07-05 18:49:00,69.3,47.5,29.73,WSW,250,3.0,11.0,46,0.00,,,-99.99,Weather View 32 v60,2013-07-06 01:49:00,
2013-07-05 18:59:00,69.3,47.5,29.73,WSW,250,3.0,11.0,46,0.00,,,-99.99,Weather View 32 v60,2013-07-06 01:59:00,
2013-07-05 19:09:00,67.5,48.1,29.73,NNW,334,8.0,11.0,50,0.00,,,-99.99,Weather View 32 v60,2013-07-06 02:09:00,
2013-07-05 19:19:00,66.9,49.2,29.73,NNW,334,0.0,11.0,53,0.00,,,-99.99,Weather View 32 v60,2013-07-06 02:19:00,
2013-07-05 19:29:00,66.4,49.2,29.73,NW,315,0.0,11.0,54,0.00,,,-99.99,Weather View 32 v60,2013-07-06 02:29:00,
2013-07-05 19:39:00,65.7,49.5,29.76,WSW,255,4.0,11.0,56,0.00,,,-99.99,Weather View 32 v60,2013-07-06 02:39:00,
2013-07-05 19:49:00,64.9,49.8,29.76,West,261,0.0,11.0,58,0.00,,,-99.99,Weather View 32 v60,2013-07-06 02:49:00,
2013-07-05 20:00:00,64.6,49.9,29.76,WNW,286,7.0,11.0,59,0.00,,,-99.99,Weather View 32 v60,2013-07-06 03:00:00,
2013-07-05 20:09:00,63.9,49.7,29.76,SW,224,0.0,11.0,60,0.00,,,-99.99,Weather View 32 v60,2013-07-06 03:09:00,
2013-07-05 20:19:00,62.8,50.4,29.76,NNW,341,3.0,8.0,64,0.00,,,-99.99,Weather View 32 v60,2013-07-06 03:19:00,
2013-07-05 20:29:00,61.9,50.0,29.76,WNW,289,0.0,8.0,65,0.00,,,-99.99,Weather View 32 v60,2013-07-06 03:29:00,
2013-07-05 20:39:00,61.3,50.3,29.76,WSW,244,0.0,8.0,67,0.00,,,-99.99,Weather View 32 v60,2013-07-06 03:39:00,
2013-07-05 20:49:00,60.6,50.0,29.76,WSW,248,0.0,8.0,68,0.00,,,-99.99,Weather View 32 v60,2013-07-06 03:49:00,
2013-07-05 20:59:00,60.1,49.9,29.76,WSW,252,4.0,8.0,69,0.00,,,-99.99,Weather View 32 v60,2013-07-06 03:59:00,
2013-07-05 21:09:00,59.7,50.3,29.76,NNW,344,0.0,8.0,71,0.00,,,-99.99,Weather View 32 v60,2013-07-06 04:09:00,
2013-07-05 21:19:00,59.4,50.3,29.76,SW,223,0.0,8.0,72,0.00,,,-99.99,Weather View 32 v60,2013-07-06 04:19:00,
2013-07-05 21:29:00,59.0,50.3,29.79,West,277,0.0,8.0,73,0.00,,,-99.99,Weather View 32 v60,2013-07-06 04:29:00,
2013-07-05 21:39:00,58.6,50.4,29.79,WSW,255,0.0,8.0,74,0.00,,,-99.99,Weather View 32 v60,2013-07-06 04:39:00,
2013-07-05 21:49:00,58.6,50.7,29.79,West,268,0.0,8.0,75,0.00,,,-99.99,Weather View 32 v60,2013-07-06 04:49:00,
2013-07-05 21:59:00,58.5,50.5,29.79,West,273,0.0,7.0,75,0.00,,,-99.99,Weather View 32 v60,2013-07-06 04:59:00,
2013-07-05 22:09:00,58.3,50.7,29.79,West,278,0.0,7.0,76,0.00,,,-99.99,Weather View 32 v60,2013-07-06 05:09:00,
2013-07-05 22:19:00,58.1,50.9,29.79,WNW,282,0.0,7.0,77,0.00,,,-99.99,Weather View 32 v60,2013-07-06 05:19:00,
2013-07-05 22:29:00,58.1,50.9,29.79,WNW,283,0.0,7.0,77,0.00,,,-99.99,Weather View 32 v60,2013-07-06 05:29:00,
2013-07-05 22:39:00,57.9,51.1,29.79,NW,316,0.0,7.0,78,0.00,,,-99.99,Weather View 32 v60,2013-07-06 05:39:00,
2013-07-05 22:49:00,57.9,51.1,29.79,NW,306,0.0,4.0,78,0.00,,,-99.99,Weather View 32 v60,2013-07-06 05:49:00,
2013-07-05 22:59:00,57.9,51.1,29.79,West,267,0.0,4.0,78,0.00,,,-99.99,Weather View 32 v60,2013-07-06 05:59:00,
2013-07-05 23:09:00,57.7,51.3,29.79,WSW,243,3.0,4.0,79,0.00,,,-99.99,Weather View 32 v60,2013-07-06 06:09:00,
2013-07-05 23:19:00,57.6,51.1,29.79,WSW,253,0.0,4.0,79,0.00,,,-99.99,Weather View 32 v60,2013-07-06 06:19:00,
2013-07-05 23:29:00,57.6,51.4,29.79,West,266,0.0,4.0,80,0.00,,,-99.99,Weather View 32 v60,2013-07-06 06:29:00,
2013-07-05 23:39:00,57.6,51.4,29.79,West,275,0.0,4.0,80,0.00,,,-99.99,Weather View 32 v60,2013-07-06 06:39:00,
2013-07-05 23:49:00,57.6,51.4,29.79,WNW,289,0.0,4.0,80,0.00,,,-99.99,Weather View 32 v60,2013-07-06 06:49:00,
2013-07-05 23:59:00,57.6,51.4,29.79,SW,234,0.0,3.0,80,0.00,,,-99.99,Weather View 32 v60,2013-07-06 06:59:00,